Tiempo atmosférico en la estación meteorológica de Llucmajor, Puig d?Escorca, Illes Balears (113 m.)



Fecha
DESCASC
Temp. máxima en grados centígrados (hora)
DESCASC
Temp. mínima en grados centígrados (hora)
DESCASC
Temp. media en grados centígrados
DESCASC
Racha de viento máxima en m/sg (hora)
DESCASC
Velocidad máxima media en intervalos de 10 minutos(hora)
DESCASC
Precipitaciones diarias en mm
DESCASC
Precipitaciones de 00:00 a 06:00 en mm
DESCASC
Precipitaciones de 06:00 a 12:00 en mm
DESCASC
Precipitaciones de 12:00 a 18:00 en mm
DESCASC
Precipitaciones de 18:00 a 24:00 en mm
DESCASC

Gráficas

Temp. máximas Temp. mínimas Temp. medias Precipitaciones Rachas de viento máximas Velocidades máximas media en intervalos de 10 minutos

Datos horarios

Fecha y hora oficial Temperatura (ºC) Velocidad del viento (km/h) Dirección del viento Racha (km/h) Dirección de racha Precipitación (mm) Presión (hPa) Tendencia (hPa) Humedad (%)
2019-02-17 23:00:00 9.1 10 Nordeste 18 Nordeste 0 -- -- 92
2019-02-17 22:00:00 9.4 12 Nordeste 19 Nordeste 0 -- -- 91
2019-02-17 21:00:00 9.5 13 Nordeste 23 Nordeste 0 -- -- 89
2019-02-17 20:00:00 9.9 11 Este 18 Este 0 -- -- 85
2019-02-17 19:00:00 11.1 13 Este 20 Este 0 -- -- 79
2019-02-17 18:00:00 12.7 14 Este 23 Sudeste 0 -- -- 73
2019-02-17 17:00:00 14.6 17 Sudeste 27 Este 0 -- -- 70
2019-02-17 16:00:00 14.8 15 Sudeste 28 Sudeste 0 -- -- 68
2019-02-17 15:00:00 16.4 15 Sudeste 25 Sudeste 0 -- -- 65
2019-02-17 14:00:00 16.4 15 Sudeste 25 Este 0 -- -- 63
2019-02-17 13:00:00 16.5 14 Sudeste 25 Sudeste 0 -- -- 61
2019-02-17 12:00:00 16 14 Este 27 Nordeste 0 -- -- 67
2019-02-17 11:00:00 13.7 19 Este 29 Sudeste 0 -- -- 83
2019-02-17 10:00:00 13.4 14 Este 22 Nordeste 0 -- -- 92
2019-02-17 09:00:00 10.4 12 Nordeste 18 Nordeste 0 -- -- 96
2019-02-17 08:00:00 7.6 12 Nordeste 17 Nordeste 0 -- -- 99
2019-02-17 07:00:00 7.6 9 Nordeste 16 Nordeste 0 -- -- 98
2019-02-17 06:00:00 7.6 12 Nordeste 19 Nordeste 0 -- -- 97
2019-02-17 05:00:00 7.7 13 Nordeste 20 Nordeste 0 -- -- 96
2019-02-17 04:00:00 8 12 Nordeste 19 Nordeste 0 -- -- 96
2019-02-17 03:00:00 7.6 12 Nordeste 18 Nordeste 0 -- -- 95
2019-02-17 02:00:00 7.9 13 Nordeste 21 Nordeste 0 -- -- 94
2019-02-17 01:00:00 8 14 Nordeste 21 Nordeste 0 -- -- 94
2019-02-17 00:00:00 7.7 14 Nordeste 23 Nordeste 0 -- -- 92
2019-02-16 23:00:00 8.1 14 Nordeste 22 Este 0 -- -- 91
2019-02-16 22:00:00 8.5 13 Este 24 Este 0 -- -- 88
2019-02-16 21:00:00 9.1 15 Este 23 Este 0 -- -- 84
2019-02-16 20:00:00 10 11 Nordeste 17 Nordeste 0 -- -- 78
2019-02-16 19:00:00 10.7 9 Este 17 Este 0 -- -- 75
2019-02-16 18:00:00 13.2 13 Este 27 Este 0 -- -- 69
2019-02-16 17:00:00 15.3 16 Sudeste 27 Sudeste 0 -- -- 66
2019-02-16 16:00:00 16.8 14 Sudeste 26 Este 0 -- -- 60
2019-02-16 15:00:00 17.2 16 Este 28 Sudeste 0 -- -- 55
2019-02-16 14:00:00 17.1 15 Sudeste 26 Este 0 -- -- 53
2019-02-16 13:00:00 17.7 12 Este 24 Este 0 -- -- 45
2019-02-16 12:00:00 17.8 12 Nordeste 27 Este 0 -- -- 34
2019-02-16 11:00:00 15.1 14 Este 28 Este 0 -- -- 32
2019-02-16 10:00:00 15.7 12 Nordeste 24 Nordeste 0 -- -- 39
2019-02-16 09:00:00 12.3 13 Nordeste 22 Nordeste 0 -- -- 49
2019-02-16 08:00:00 6.7 14 Nordeste 23 Nordeste 0 -- -- 68
2019-02-16 07:00:00 6.8 12 Nordeste 20 Nordeste 0 -- -- 75
2019-02-16 06:00:00 6.5 14 Nordeste 23 Nordeste 0 -- -- 89
2019-02-16 05:00:00 5.5 14 Nordeste 19 Nordeste 0 -- -- 93
2019-02-16 04:00:00 6.3 10 Nordeste 14 Nordeste 0 -- -- 91
2019-02-16 03:00:00 6.9 9 Nordeste 15 Nordeste 0 -- -- 90
2019-02-16 02:00:00 7.2 12 Nordeste 17 Nordeste 0 -- -- 87
2019-02-16 01:00:00 6.8 11 Nordeste 16 Nordeste 0 -- -- 83
2019-02-16 00:00:00 6.7 11 Nordeste 15 Nordeste 0 -- -- 83
2019-02-15 23:00:00 6.9 10 Nordeste 18 Nordeste 0 -- -- 88
2019-02-15 22:00:00 8 9 Nordeste 15 Nordeste 0 -- -- 87
2019-02-15 21:00:00 8.8 10 Nordeste 17 Nordeste 0 -- -- 84
2019-02-15 20:00:00 8.9 10 Nordeste 19 Nordeste 0 -- -- 82
2019-02-15 19:00:00 10.6 13 Este 19 Este 0 -- -- 77
2019-02-15 18:00:00 12.8 11 Sudeste 23 Este 0 -- -- 72
2019-02-15 17:00:00 15.3 12 Sudeste 21 Sudeste 0 -- -- 65
2019-02-15 16:00:00 16.1 11 Sudeste 20 Sudeste 0 -- -- 67
2019-02-15 15:00:00 15.8 13 Sudeste 26 Sudeste 0 -- -- 66
2019-02-15 14:00:00 16.4 11 Sudeste 21 Sudeste 0 -- -- 67
2019-02-15 13:00:00 16.4 8 Sudeste 19 Este 0 -- -- 69
2019-02-15 12:00:00 15.4 13 Este 23 Este 0 -- -- 76
2019-02-15 11:00:00 13.3 15 Este 26 Este 0 -- -- 90
2019-02-15 10:00:00 13.2 11 Este 19 Este 0 -- -- 92
2019-02-15 09:00:00 10.7 9 Nordeste 18 Nordeste 0 -- -- 93
2019-02-15 08:00:00 6.6 12 Nordeste 20 Nordeste 0 -- -- 98
2019-02-15 07:00:00 6.5 15 Nordeste 24 Nordeste 0 -- -- 97
2019-02-15 06:00:00 6.9 17 Nordeste 24 Nordeste 0 -- -- 97
2019-02-15 05:00:00 6.6 13 Nordeste 19 Nordeste 0 -- -- 96
2019-02-15 04:00:00 6.8 13 Nordeste 19 Nordeste 0 -- -- 95
2019-02-15 03:00:00 7.1 13 Nordeste 19 Nordeste 0 -- -- 94
2019-02-15 02:00:00 7 13 Nordeste 20 Este 0 -- -- 94
2019-02-15 01:00:00 6.7 12 Nordeste 23 Nordeste 0 -- -- 93
2019-02-15 00:00:00 7 13 Nordeste 19 Nordeste 0 -- -- 92
2019-02-14 23:00:00 7.3 12 Nordeste 19 Nordeste 0 -- -- 90
2019-02-14 22:00:00 7.6 12 Nordeste 21 Nordeste 0 -- -- 89
2019-02-14 21:00:00 7.6 13 Nordeste 20 Nordeste 0 -- -- 86
2019-02-14 20:00:00 8.3 13 Nordeste 21 Este 0 -- -- 82
2019-02-14 19:00:00 9.7 13 Este 21 Este 0 -- -- 75
2019-02-14 18:00:00 12.1 12 Este 26 Este 0 -- -- 66
2019-02-14 17:00:00 14.5 17 Este 29 Sudeste 0 -- -- 61
2019-02-14 16:00:00 14.9 17 Sudeste 29 Sudeste 0 -- -- 61
2019-02-14 15:00:00 15.6 13 Sudeste 24 Este 0 -- -- 63
2019-02-14 14:00:00 15.6 14 Sudeste 30 Este 0 -- -- 61
2019-02-14 13:00:00 15.8 15 Sudeste 28 Este 0 -- -- 59
2019-02-14 12:00:00 15.4 18 Este 31 Este 0 -- -- 64
2019-02-14 11:00:00 13.2 14 Este 27 Este 0 -- -- 72
2019-02-14 10:00:00 13.9 12 Nordeste 24 Nordeste 0 -- -- 74
2019-02-14 09:00:00 10.7 11 Nordeste 24 Nordeste 0 -- -- 84
2019-02-14 08:00:00 5.8 13 Nordeste 21 Nordeste 0 -- -- 89
2019-02-14 07:00:00 5.7 13 Nordeste 18 Nordeste 0 -- -- 89
2019-02-14 06:00:00 5.8 13 Nordeste 20 Nordeste 0 -- -- 88
2019-02-14 05:00:00 6 13 Nordeste 20 Nordeste 0 -- -- 87
2019-02-14 04:00:00 5.6 12 Nordeste 20 Nordeste 0 -- -- 86
2019-02-14 03:00:00 6 12 Nordeste 19 Nordeste 0 -- -- 86
2019-02-14 02:00:00 6 10 Nordeste 15 Nordeste 0 -- -- 86
2019-02-14 01:00:00 5.6 9 Nordeste 15 Nordeste 0 -- -- 85
2019-02-14 00:00:00 5.6 8 Nordeste 13 Nordeste 0 -- -- 85
2019-02-13 23:00:00 6.4 8 Nordeste 14 Nordeste 0 -- -- 83
2019-02-13 22:00:00 7.2 9 Nordeste 17 Nordeste 0 -- -- 80
2019-02-13 21:00:00 7.2 7 Nordeste 15 Este 0 -- -- 76
2019-02-13 20:00:00 8.6 8 Este 11 Nordeste 0 -- -- 74
2019-02-13 19:00:00 9.9 6 Este 8 Este 0 -- -- 70
2019-02-13 18:00:00 12 5 Sudeste 12 Sudeste 0 -- -- 62
2019-02-13 17:00:00 15 8 Sur 14 Sur 0 -- -- 50
2019-02-13 16:00:00 15.8 9 Sudoeste 15 Sur 0 -- -- 49
2019-02-13 15:00:00 15.5 7 Sudoeste 13 Sur 0 -- -- 48
2019-02-13 14:00:00 15.8 7 Sudoeste 14 Sur 0 -- -- 47
2019-02-13 13:00:00 16 8 Sudoeste 16 Sudoeste 0 -- -- 53
2019-02-13 12:00:00 16.4 7 Sur 12 Sur -- -- -- 57
2019-02-13 11:00:00 13 5 Oeste 13 Oeste 0 -- -- 70
2019-02-13 10:00:00 14.9 6 Oeste 9 Oeste 0 -- -- 65
2019-02-13 09:00:00 14.5 2 Norte 6 Oeste 0 -- -- 71
2019-02-13 08:00:00 8.9 5 Noroeste 11 Oeste 0 -- -- 81
2019-02-13 07:00:00 9.3 7 Oeste 16 Oeste 0 -- -- 77
2019-02-13 06:00:00 9.4 9 Oeste 18 Sudoeste 0 -- -- 78
2019-02-13 05:00:00 9.3 8 Oeste 17 Oeste 0 -- -- 79
2019-02-13 04:00:00 9.2 10 Oeste 17 Oeste 0 -- -- 81
2019-02-13 03:00:00 9.4 11 Oeste 20 Oeste 0 -- -- 83
2019-02-13 02:00:00 8.5 9 Oeste 14 Oeste 0 -- -- 81
2019-02-13 01:00:00 8.6 8 Oeste 11 Oeste 0 -- -- 80
2019-02-13 00:00:00 8.9 7 Oeste 11 Sudoeste 0 -- -- 80
2019-02-12 23:00:00 9.4 7 Oeste 9 Oeste 0 -- -- 78
2019-02-12 22:00:00 9.6 8 Oeste 10 Oeste 0 -- -- 77
2019-02-12 21:00:00 9.9 5 Oeste 9 Oeste 0 -- -- 80
2019-02-12 20:00:00 10.3 6 Oeste 17 Oeste 0 -- -- 80
2019-02-12 19:00:00 10.9 8 Oeste 20 Oeste 0 -- -- 78
2019-02-12 18:00:00 12.1 13 Oeste 22 Oeste 0 -- -- 73
2019-02-12 17:00:00 14.3 13 Oeste 22 Oeste 0 -- -- 68
2019-02-12 16:00:00 15.6 13 Oeste 22 Oeste 0 -- -- 65
2019-02-12 15:00:00 15.2 12 Oeste 24 Sudoeste 0 -- -- 64
2019-02-12 14:00:00 14.7 9 Sudoeste 22 Sudoeste 0 -- -- 72
2019-02-12 13:00:00 12.9 12 Oeste 22 Oeste 0 -- -- 72
2019-02-12 12:00:00 14.5 12 Oeste 18 Oeste 0 -- -- 68
2019-02-12 11:00:00 13 9 Oeste 16 Noroeste 0 -- -- 74
2019-02-12 10:00:00 13.8 6 Noroeste 12 Noroeste 0 -- -- 75
2019-02-12 09:00:00 10.3 8 Norte 13 Norte 0 -- -- 83
2019-02-12 08:00:00 7.7 7 Norte 11 Norte 0 -- -- 88
2019-02-12 07:00:00 7.9 5 Norte 9 Norte 0 -- -- 89
2019-02-12 06:00:00 7.2 9 Norte 17 Norte 0 -- -- 89
2019-02-12 05:00:00 8.2 7 Norte 13 Noroeste 0 -- -- 88
2019-02-12 04:00:00 8.1 8 Noroeste 14 Noroeste 0 -- -- 87
2019-02-12 03:00:00 7.8 7 Norte 11 Norte 0 -- -- 88
2019-02-12 02:00:00 8.2 8 Nordeste 13 Nordeste 0 -- -- 88
2019-02-12 01:00:00 8.1 7 Norte 10 Nordeste 0 -- -- 88
2019-02-12 00:00:00 8.4 9 Nordeste 16 Nordeste 0 -- -- 87
2019-02-11 23:00:00 8.2 10 Nordeste 14 Nordeste 0 -- -- 88
2019-02-11 22:00:00 7.7 7 Nordeste 12 Nordeste 0 -- -- 87
2019-02-11 21:00:00 8.4 8 Nordeste 13 Nordeste 0 -- -- 86
2019-02-11 20:00:00 8.8 5 Nordeste 9 Nordeste 0 -- -- 83
2019-02-11 19:00:00 9.6 6 Nordeste 10 Nordeste 0 -- -- 78
2019-02-11 18:00:00 11.2 5 Este 12 Sudeste 0 -- -- 74
2019-02-11 17:00:00 12 8 Este 17 Este 0 -- -- 71
2019-02-11 16:00:00 14 7 Oeste 20 Oeste 0 -- -- 62
2019-02-11 15:00:00 14.1 13 Oeste 24 Oeste 0 -- -- 63
2019-02-11 14:00:00 15.5 13 Sudoeste 22 Oeste 0 -- -- 63
2019-02-11 13:00:00 16.2 10 Sudoeste 15 Sudoeste 0 -- -- 59
2019-02-11 12:00:00 16.4 9 Sudoeste 14 Sudoeste 0 -- -- 61
2019-02-11 11:00:00 13.9 2 Este 15 Nordeste 0 -- -- 69
2019-02-11 10:00:00 12.5 9 Este 15 Nordeste 0 -- -- 77
2019-02-11 09:00:00 11.3 8 Nordeste 15 Norte 0 -- -- 88
2019-02-11 08:00:00 10.1 10 Nordeste 16 Nordeste 0 -- -- 89
2019-02-11 07:00:00 10.3 7 Nordeste 14 Nordeste 0 -- -- 87
2019-02-11 06:00:00 10.4 7 Nordeste 16 Nordeste 0 -- -- 85
2019-02-11 05:00:00 10.5 11 Nordeste 20 Norte 0 -- -- 81
2019-02-11 04:00:00 13.1 18 Noroeste 32 Noroeste 0 -- -- 75
2019-02-11 03:00:00 12 15 Noroeste 24 Noroeste 0 -- -- 86
2019-02-11 02:00:00 12.3 7 Noroeste 24 Oeste 0 -- -- 86
2019-02-11 01:00:00 13.2 13 Oeste 25 Oeste 0 -- -- 85
2019-02-11 00:00:00 12.8 12 Oeste 23 Oeste 0 -- -- 84
2019-02-10 23:00:00 13.2 15 Oeste 28 Oeste 0 -- -- 82
2019-02-10 22:00:00 13.1 14 Oeste 31 Oeste 0 -- -- 81
2019-02-10 21:00:00 13.2 21 Oeste 33 Noroeste 0 -- -- 82
2019-02-10 20:00:00 12.9 18 Noroeste 36 Oeste 0 -- -- 83
2019-02-10 19:00:00 13.2 19 Oeste 37 Oeste 0 -- -- 79
2019-02-10 18:00:00 13.5 21 Oeste 33 Oeste 0 -- -- 76
2019-02-10 17:00:00 14 19 Oeste 48 Oeste 0 -- -- 72
2019-02-10 16:00:00 14.3 26 Oeste 46 Oeste 0 -- -- 71
2019-02-10 15:00:00 15.5 26 Oeste 50 Oeste 0 -- -- 69
2019-02-10 14:00:00 16.4 21 Oeste 34 Oeste 0 -- -- 79
2019-02-10 13:00:00 15.8 18 Oeste 35 Sudoeste 0 -- -- 84
2019-02-10 12:00:00 15.2 21 Oeste 36 Sudoeste 0 -- -- 86
2019-02-10 11:00:00 13.5 15 Sudoeste 32 Sudoeste 0 -- -- 89
2019-02-10 10:00:00 13.5 14 Sudoeste 34 Sudoeste 0 -- -- 89
2019-02-10 09:00:00 12.8 15 Sudoeste 29 Oeste 0 -- -- 90
2019-02-10 08:00:00 12.2 15 Sudoeste 30 Sudoeste 0 -- -- 90
2019-02-10 07:00:00 12 15 Sudoeste 27 Sudoeste 0 -- -- 89
2019-02-10 06:00:00 11.9 13 Sudoeste 26 Oeste 0 -- -- 90
2019-02-10 05:00:00 11.8 13 Sudoeste 25 Oeste 0 -- -- 90
2019-02-10 04:00:00 12 13 Sudoeste 26 Sudoeste 0 -- -- 92
2019-02-10 03:00:00 11.8 12 Sudoeste 20 Sudoeste 0 -- -- 93
2019-02-10 02:00:00 11.6 12 Sudoeste 18 Sudoeste 0 -- -- 94
2019-02-10 01:00:00 11.5 9 Sudoeste 17 Sudoeste 0 -- -- 95
2019-02-10 00:00:00 11.5 10 Sudoeste 22 Sur 0 -- -- 95
2019-02-09 23:00:00 11.8 10 Sudoeste 22 Sudoeste 0 -- -- 94
2019-02-09 22:00:00 11.4 7 Sudoeste 9 Sudoeste 0 -- -- 94
2019-02-09 21:00:00 11.2 6 Sudoeste 9 Sudoeste 0 -- -- 93
2019-02-09 20:00:00 11.2 6 Sudoeste 11 Oeste 0 -- -- 91
2019-02-09 19:00:00 11.5 8 Oeste 13 Oeste 0 -- -- 88
2019-02-09 18:00:00 13.1 9 Sudoeste 16 Sudoeste 0 -- -- 82
2019-02-09 17:00:00 15.8 10 Sudoeste 18 Sudoeste 0 -- -- 76
2019-02-09 16:00:00 16.2 10 Oeste 19 Sudoeste 0 -- -- 78
2019-02-09 15:00:00 16.6 15 Sudoeste 21 Oeste 0 -- -- 80
2019-02-09 14:00:00 15.9 12 Oeste 20 Oeste 0 -- -- 80
2019-02-09 13:00:00 16.7 13 Sudoeste 19 Sudoeste 0 -- -- 80
2019-02-09 12:00:00 16 11 Sudoeste 22 Oeste 0 -- -- 84
2019-02-09 11:00:00 14.5 10 Sudoeste 17 Sudoeste 0 -- -- 85
2019-02-09 10:00:00 14.1 12 Sudoeste 21 Sudoeste 0 -- -- 87
2019-02-09 09:00:00 13.5 11 Sudoeste 22 Sudoeste 0 -- -- 89
2019-02-09 08:00:00 12.4 10 Sudoeste 22 Oeste 0 -- -- 91
2019-02-09 07:00:00 12.3 12 Oeste 23 Sudoeste 0 -- -- 91
2019-02-09 06:00:00 12.2 14 Sudoeste 24 Oeste 0 -- -- 92
2019-02-09 05:00:00 12.1 15 Sudoeste 22 Sudoeste 0 -- -- 92
2019-02-09 04:00:00 11.9 10 Sudoeste 20 Sudoeste 0 -- -- 92
2019-02-09 03:00:00 11.8 10 Sudoeste 17 Sudoeste 0 -- -- 92
2019-02-09 02:00:00 11.7 9 Sudoeste 15 Sudoeste 0 -- -- 91
2019-02-09 01:00:00 11.4 7 Sudoeste 14 Sudoeste 0 -- -- 90
2019-02-09 00:00:00 11.6 8 Sudoeste 14 Sudoeste 0 -- -- 90
2019-02-08 23:00:00 11.8 7 Sudoeste 17 Sudoeste 0 -- -- 89
2019-02-08 22:00:00 11.9 8 Sudoeste 18 Sudoeste 0 -- -- 88
2019-02-08 21:00:00 11.9 9 Sudoeste 17 Sudoeste 0 -- -- 87
2019-02-08 20:00:00 11.8 10 Sudoeste 17 Sudoeste 0 -- -- 86
2019-02-08 19:00:00 12 8 Sudoeste 13 Sudoeste 0 -- -- 84
2019-02-08 18:00:00 13.1 6 Sudoeste 17 Sudoeste 0 -- -- 77
2019-02-08 17:00:00 14.6 8 Sudoeste 18 Sudoeste 0 -- -- 74
2019-02-08 16:00:00 15.3 13 Sudoeste 21 Sudoeste 0 -- -- 74
2019-02-08 15:00:00 15.2 12 Sur 23 Sur 0 -- -- 73
2019-02-08 14:00:00 15.2 15 Sur 24 Sur 0 -- -- 72
2019-02-08 13:00:00 15.7 12 Sur 20 Sur 0 -- -- 69
2019-02-08 12:00:00 15.3 10 Sur 18 Sur 0 -- -- 72
2019-02-08 11:00:00 13.9 8 Sudeste 15 Sudeste 0 -- -- 77
2019-02-08 10:00:00 14.2 5 Este 12 Este 0 -- -- 79
2019-02-08 09:00:00 12.1 5 Nordeste 8 Nordeste 0 -- -- 89
2019-02-08 08:00:00 8.6 6 Nordeste 9 Nordeste 0 -- -- 94
2019-02-08 07:00:00 8.1 8 Nordeste 17 Nordeste 0 -- -- 93
2019-02-08 06:00:00 8.5 12 Nordeste 18 Nordeste 0 -- -- 93
2019-02-08 05:00:00 8.6 12 Nordeste 18 Nordeste 0 -- -- 92
2019-02-08 04:00:00 9 13 Nordeste 18 Nordeste 0 -- -- 92
2019-02-08 03:00:00 9.1 13 Nordeste 23 Este 0 -- -- 93
2019-02-08 02:00:00 9.2 14 Nordeste 22 Nordeste 0 -- -- 93
2019-02-08 01:00:00 9.1 13 Nordeste 20 Nordeste 0 -- -- 95
2019-02-08 00:00:00 9.4 14 Nordeste 22 Nordeste 0 -- -- 95
2019-02-07 23:00:00 9.1 13 Nordeste 20 Nordeste 0 -- -- 95
2019-02-07 22:00:00 9.4 10 Nordeste 14 Nordeste 0 -- -- 93
2019-02-07 21:00:00 10.4 11 Nordeste 16 Nordeste 0 -- -- 92
2019-02-07 20:00:00 11.3 9 Este 19 Este 0 -- -- 90
2019-02-07 19:00:00 12.1 9 Sudeste 13 Este 0 -- -- 87
2019-02-07 18:00:00 13.9 3 Sudeste 8 Noroeste 0 -- -- 80
2019-02-07 17:00:00 16.1 5 Oeste 15 Oeste 0 -- -- 78
2019-02-07 16:00:00 15.5 10 Oeste 15 Noroeste 0 -- -- 77
2019-02-07 15:00:00 16.4 9 Sudoeste 15 Oeste 0 -- -- 75
2019-02-07 14:00:00 16.8 8 Sudoeste 15 Sudoeste 0 -- -- 77
2019-02-07 13:00:00 16.3 9 Sudoeste 14 Sudoeste 0 -- -- 86
2019-02-07 12:00:00 14.9 6 Sudoeste 10 Sur 0 -- -- 92
2019-02-07 11:00:00 13.6 5 Oeste 10 Oeste 0 -- -- 96
2019-02-07 10:00:00 12.7 0 Calma 5 Sudeste 0 -- -- 98
2019-02-07 09:00:00 11 2 Este 6 Sur 0 -- -- 98
2019-02-07 08:00:00 11 3 Sur 12 Sudoeste 0 -- -- 97
2019-02-07 07:00:00 11.1 6 Sudoeste 9 Sudoeste 0 -- -- 98
2019-02-07 06:00:00 11.2 5 Sudoeste 10 Sudoeste 0 -- -- 97
2019-02-07 05:00:00 10.8 5 Sudoeste 9 Sudoeste 0 -- -- 97
2019-02-07 04:00:00 10.9 5 Sur 8 Sur 0 -- -- 97
2019-02-07 03:00:00 10.9 4 Sur 10 Sudoeste 0 -- -- 95
2019-02-07 02:00:00 11.4 6 Sur 11 Sudoeste 0 -- -- 95
2019-02-07 01:00:00 11.3 5 Sudoeste 8 Sudoeste 0 -- -- 95
2019-02-07 00:00:00 11.3 6 Sudoeste 12 Sudoeste 0 -- -- 94
2019-02-06 23:00:00 11.7 9 Oeste 14 Sudoeste 0 -- -- 93
2019-02-06 22:00:00 12 9 Oeste 15 Sudoeste 0 -- -- 92
2019-02-06 21:00:00 12.3 8 Sudoeste 15 Sudoeste 0 -- -- 91
2019-02-06 20:00:00 12.3 9 Oeste 14 Sudoeste 0 -- -- 90
2019-02-06 19:00:00 12.1 10 Sudoeste 16 Sudoeste 0 -- -- 87
2019-02-06 18:00:00 13.3 10 Sudoeste 19 Oeste 0 -- -- 82
2019-02-06 17:00:00 16.2 11 Sudoeste 23 Oeste 0 -- -- 74
2019-02-06 16:00:00 16.1 14 Oeste 22 Sudoeste 0 -- -- 73
2019-02-06 15:00:00 16.5 12 Oeste 23 Oeste 0 -- -- 75
2019-02-06 14:00:00 16.2 14 Oeste 23 Oeste 0 -- -- 74
2019-02-06 13:00:00 16.5 13 Sudoeste 18 Oeste 0 -- -- 69
2019-02-06 12:00:00 16.8 11 Oeste 19 Sudoeste 0 -- -- 67
2019-02-06 11:00:00 14.6 8 Oeste 13 Oeste 0 -- -- 71
2019-02-06 10:00:00 13.9 8 Oeste 12 Oeste 0 -- -- 78
2019-02-06 09:00:00 13.7 6 Oeste 13 Oeste 0 -- -- 83
2019-02-06 08:00:00 9.6 8 Oeste 12 Oeste 0 -- -- 86
2019-02-06 07:00:00 10.1 4 Oeste 7 Oeste 0 -- -- 85
2019-02-06 06:00:00 9.7 6 Noroeste 9 Noroeste 0 -- -- 84
2019-02-06 05:00:00 9.6 8 Noroeste 13 Oeste 0 -- -- 82
2019-02-06 04:00:00 11.1 0 Calma 0 Calma 0 -- -- 76
2019-02-06 03:00:00 10.2 0 Calma 6 Oeste 0 -- -- 83
2019-02-06 02:00:00 11 5 Oeste 7 Oeste 0 -- -- 76
2019-02-06 01:00:00 10.4 0 Calma 7 Nordeste 0 -- -- 71
2019-02-06 00:00:00 9.6 7 Nordeste 11 Norte 0 -- -- 80
2019-02-05 23:00:00 10.7 6 Noroeste 8 Noroeste 0 -- -- 82
2019-02-05 22:00:00 10.7 6 Noroeste 9 Oeste 0 -- -- 87
2019-02-05 21:00:00 10.5 7 Noroeste 11 Noroeste 0 -- -- 85
2019-02-05 20:00:00 10.8 9 Noroeste 14 Oeste 0 -- -- 83
2019-02-05 19:00:00 11.5 10 Noroeste 18 Oeste 0 -- -- 80
2019-02-05 18:00:00 12.6 12 Oeste 21 Oeste 0 -- -- 74
2019-02-05 17:00:00 14.2 14 Oeste 23 Oeste 0 -- -- 66
2019-02-05 16:00:00 15.4 14 Oeste 26 Oeste 0 -- -- 54
2019-02-05 15:00:00 15.5 15 Oeste 27 Oeste 0 -- -- 51
2019-02-05 14:00:00 14.3 15 Oeste 22 Oeste 0 -- -- 59
2019-02-05 13:00:00 14.6 13 Oeste 23 Oeste 0 -- -- 61
2019-02-05 12:00:00 13.1 11 Oeste 19 Oeste 0 -- -- 56
2019-02-05 11:00:00 13.1 10 Oeste 16 Oeste 0 -- -- 53
2019-02-05 10:00:00 10.7 8 Oeste 14 Oeste 0 -- -- 56
2019-02-05 09:00:00 10.6 7 Noroeste 10 Noroeste 0 -- -- 48
2019-02-05 08:00:00 6 7 Noroeste 11 Norte 0 -- -- 65
2019-02-05 07:00:00 6.8 9 Norte 12 Norte 0 -- -- 77
2019-02-05 06:00:00 7.5 7 Oeste 13 Oeste 0 -- -- 76
2019-02-05 05:00:00 7.3 9 Noroeste 13 Noroeste 0 -- -- 74
2019-02-05 04:00:00 7.7 10 Noroeste 18 Oeste 0 -- -- 72
2019-02-05 03:00:00 8.7 12 Noroeste 22 Noroeste 0 -- -- 69
2019-02-05 02:00:00 8.9 16 Noroeste 27 Oeste 0 -- -- 67
2019-02-05 01:00:00 9 18 Oeste 26 Oeste 0 -- -- 68
2019-02-05 00:00:00 7.6 14 Noroeste 22 Oeste 0 -- -- 73
2019-02-04 23:00:00 7.6 6 Oeste 10 Oeste 0 -- -- 69
2019-02-04 22:00:00 6.6 3 Norte 6 Norte 0 -- -- 66
2019-02-04 21:00:00 6.3 5 Norte 14 Noroeste 0 -- -- 67
2019-02-04 20:00:00 6.9 10 Noroeste 14 Norte 0 -- -- 68
2019-02-04 19:00:00 7.9 8 Noroeste 19 Oeste 0 -- -- 66
2019-02-04 18:00:00 9.7 14 Noroeste 29 Oeste 0 -- -- 58
2019-02-04 17:00:00 11.7 19 Oeste 32 Oeste 0 -- -- 50
2019-02-04 16:00:00 12.5 19 Oeste 31 Oeste 0 -- -- 52
2019-02-04 15:00:00 12.3 17 Oeste 28 Oeste 0 -- -- 55
2019-02-04 14:00:00 12.2 15 Oeste 27 Oeste 0 -- -- 51
2019-02-04 13:00:00 12.3 16 Oeste 33 Oeste 0 -- -- 51
2019-02-04 12:00:00 13.3 10 Oeste 17 Oeste 0 -- -- 41
2019-02-04 11:00:00 10.7 10 Oeste 16 Oeste 0 -- -- 48
2019-02-04 10:00:00 10.8 5 Norte 11 Norte 0 -- -- 45
2019-02-04 09:00:00 9.4 5 Norte 12 Nordeste 0 -- -- 50
2019-02-04 08:00:00 5.6 9 Nordeste 13 Norte 0 -- -- 62
2019-02-04 07:00:00 6.1 8 Nordeste 17 Noroeste 0 -- -- 62
2019-02-04 06:00:00 5.9 11 Noroeste 18 Noroeste 0 -- -- 63
2019-02-04 05:00:00 5.8 12 Noroeste 17 Noroeste 0 -- -- 61
2019-02-04 04:00:00 4.8 9 Noroeste 19 Norte 0 -- -- 60
2019-02-04 03:00:00 5.9 12 Norte 22 Norte 0 -- -- 56
2019-02-04 02:00:00 6.2 14 Norte 21 Norte 0 -- -- 55
2019-02-04 01:00:00 7 11 Noroeste 32 Noroeste 0 -- -- 52
2019-02-04 00:00:00 9.1 22 Noroeste 36 Noroeste 0 -- -- 49
2019-02-03 23:00:00 7.9 14 Noroeste 20 Norte 0 -- -- 47
2019-02-03 22:00:00 7.5 12 Noroeste 21 Noroeste 0 -- -- 47
2019-02-03 21:00:00 7.1 12 Noroeste 21 Noroeste 0 -- -- 47
2019-02-03 20:00:00 7.2 12 Noroeste 20 Noroeste 0 -- -- 45
2019-02-03 19:00:00 6.9 10 Noroeste 19 Oeste 0 -- -- 47
2019-02-03 18:00:00 8.7 9 Oeste 15 Oeste 0 -- -- 59
2019-02-03 17:00:00 9.7 3 Este 13 Este 0 -- -- 64
2019-02-03 16:00:00 8.2 9 Este 27 Este 0 -- -- 69
2019-02-03 15:00:00 9.2 17 Este 29 Noroeste 0 -- -- 61
2019-02-03 14:00:00 12.4 18 Noroeste 29 Noroeste 0 -- -- 39
2019-02-03 13:00:00 11.6 17 Noroeste 33 Noroeste 0 -- -- 44
2019-02-03 12:00:00 11.8 15 Noroeste 31 Noroeste 0 -- -- 41
2019-02-03 11:00:00 10.4 18 Noroeste 31 Noroeste 0 -- -- 45
2019-02-03 10:00:00 9.8 14 Noroeste 26 Noroeste 0 -- -- 52
2019-02-03 09:00:00 9.1 13 Noroeste 27 Oeste 0 -- -- 58
2019-02-03 08:00:00 6.4 11 Noroeste 28 Noroeste 0 -- -- 64
2019-02-03 07:00:00 6.5 14 Noroeste 24 Noroeste 0 -- -- 67
2019-02-03 06:00:00 6.5 13 Noroeste 24 Norte 0 -- -- 67
2019-02-03 05:00:00 6.7 12 Noroeste 29 Noroeste 0 -- -- 66
2019-02-03 04:00:00 7.1 16 Noroeste 32 Noroeste 0 -- -- 64
2019-02-03 03:00:00 7.6 18 Noroeste 36 Noroeste 0 -- -- 61
2019-02-03 02:00:00 7.8 20 Noroeste 36 Noroeste 0 -- -- 60
2019-02-03 01:00:00 8.4 18 Noroeste 43 Noroeste 0 -- -- 62
2019-02-03 00:00:00 8.6 23 Noroeste 45 Noroeste 0 -- -- 60
2019-02-02 23:00:00 9.1 19 Noroeste 35 Noroeste 0 -- -- 59
2019-02-02 22:00:00 9.4 20 Noroeste 45 Noroeste 0 -- -- 62
2019-02-02 21:00:00 9.6 24 Noroeste 48 Noroeste 0 -- -- 60
2019-02-02 20:00:00 10 23 Noroeste 49 Noroeste 0 -- -- 61
2019-02-02 19:00:00 10.1 25 Noroeste 45 Noroeste 0 -- -- 61
2019-02-02 18:00:00 10.4 29 Noroeste 52 Oeste 0 -- -- 59
2019-02-02 17:00:00 10.2 27 Noroeste 52 Noroeste 0 -- -- 67
2019-02-02 16:00:00 9.7 32 Noroeste 55 Noroeste 0 -- -- 68
2019-02-02 15:00:00 11.5 33 Noroeste 54 Noroeste 0 -- -- 58
2019-02-02 14:00:00 12 28 Noroeste 56 Oeste 0 -- -- 57
2019-02-02 13:00:00 13.7 31 Oeste 59 Oeste 0 -- -- 52
2019-02-02 12:00:00 13.4 25 Noroeste 41 Oeste 0 -- -- 53
2019-02-02 11:00:00 10.4 21 Noroeste 52 Oeste 0 -- -- 68
2019-02-02 10:00:00 9.5 24 Oeste 56 Oeste 0.2 -- -- 74
2019-02-02 09:00:00 11.4 33 Oeste 58 Oeste 0 -- -- 65
2019-02-02 08:00:00 11 33 Oeste 68 Oeste 0 -- -- 66
2019-02-02 07:00:00 11 37 Oeste 69 Oeste 0 -- -- 65
2019-02-02 06:00:00 11.3 35 Oeste 65 Oeste 0 -- -- 64
2019-02-02 05:00:00 11.3 39 Oeste 69 Oeste 0 -- -- 63
2019-02-02 04:00:00 11.4 37 Oeste 83 Oeste 0 -- -- 62
2019-02-02 03:00:00 11.3 39 Oeste 71 Oeste 0 -- -- 63
2019-02-02 02:00:00 11.6 37 Oeste 67 Oeste 0 -- -- 61
2019-02-02 01:00:00 12.1 35 Oeste 69 Oeste 0 -- -- 68
2019-02-02 00:00:00 12.8 21 Sudoeste 39 Sudoeste 0 -- -- 86
2019-02-01 23:00:00 13.2 14 Sudoeste 35 Sudoeste 0 -- -- 84
2019-02-01 22:00:00 13.2 18 Sudoeste 40 Sudoeste 0 -- -- 76
2019-02-01 21:00:00 13.4 24 Oeste 44 Sudoeste 0 -- -- 68
2019-02-01 20:00:00 13.3 23 Oeste 43 Oeste 0 -- -- 69
2019-02-01 19:00:00 -- -- -- -- -- -- -- -- --
2019-02-01 18:00:00 13 21 Sudoeste 43 Sudoeste 0 -- -- 87
2019-02-01 17:00:00 14.6 17 Sudoeste 35 Sudoeste 0 -- -- 84
2019-02-01 16:00:00 15.9 25 Sudoeste 53 Oeste 0 -- -- 85
2019-02-01 15:00:00 -- -- -- -- -- -- -- -- --
2019-02-01 14:00:00 14.7 28 Sudoeste 53 Sudoeste 0 -- -- 87
2019-02-01 13:00:00 14.5 28 Sudoeste 63 Sudoeste 0 -- -- 89
2019-02-01 12:00:00 14 36 Sudoeste 66 Sudoeste 0.4 -- -- 91
2019-02-01 11:00:00 13.8 33 Sudoeste 64 Sudoeste 0.2 -- -- 91
2019-02-01 10:00:00 13.6 35 Sudoeste 67 Sudoeste 0 -- -- 91
2019-02-01 09:00:00 13.7 36 Sudoeste 66 Oeste 0 -- -- 90
2019-02-01 08:00:00 13.9 35 Sudoeste 68 Sudoeste 0 -- -- 90
2019-02-01 07:00:00 13.9 31 Sudoeste 69 Sudoeste 0 -- -- 91
2019-02-01 06:00:00 13.8 33 Sudoeste 63 Sudoeste 0 -- -- 91
2019-02-01 05:00:00 13.6 28 Sudoeste 54 Sudoeste 0 -- -- 91
2019-02-01 04:00:00 13.7 30 Sudoeste 59 Sudoeste 0 -- -- 89
2019-02-01 03:00:00 13.8 27 Sudoeste 48 Sudoeste 0 -- -- 89
2019-02-01 02:00:00 14.1 25 Sudoeste 49 Sudoeste 0 -- -- 90
2019-02-01 01:00:00 14 28 Sudoeste 52 Sudoeste 0 -- -- 91
2019-02-01 00:00:00 13.8 21 Sudoeste 43 Sudoeste 0 -- -- 91
2019-01-31 23:00:00 13.9 20 Sudoeste 41 Sudoeste 0 -- -- 90
2019-01-31 22:00:00 13.8 20 Sudoeste 41 Sudoeste 0 -- -- 90
2019-01-31 21:00:00 13.8 23 Sudoeste 41 Sudoeste 0 -- -- 90
2019-01-31 20:00:00 13.9 23 Sudoeste 40 Sudoeste 0 -- -- 87
2019-01-31 19:00:00 14.1 26 Sudoeste 46 Sudoeste 0 -- -- 85
2019-01-31 18:00:00 14.3 24 Sudoeste 50 Sudoeste 0 -- -- 81
2019-01-31 17:00:00 16.1 24 Sudoeste 45 Sudoeste 0 -- -- 73
2019-01-31 16:00:00 16.8 24 Sudoeste 50 Sudoeste 0 -- -- 70
2019-01-31 15:00:00 16.9 24 Sudoeste 53 Sudoeste 0 -- -- 71
2019-01-31 14:00:00 16.6 25 Oeste 50 Sudoeste 0 -- -- 73
2019-01-31 13:00:00 15.9 27 Oeste 47 Sudoeste 0 -- -- 72
2019-01-31 12:00:00 16 20 Oeste 46 Oeste 0 -- -- 73
2019-01-31 11:00:00 15.3 27 Oeste 49 Sudoeste 0 -- -- 74
2019-01-31 10:00:00 14.6 23 Oeste 42 Sudoeste 0 -- -- 75
2019-01-31 09:00:00 13.6 24 Sudoeste 44 Oeste 0 -- -- 74
2019-01-31 08:00:00 13.1 25 Oeste 51 Sudoeste 0 -- -- 72
2019-01-31 07:00:00 13.2 27 Sudoeste 51 Sudoeste 0 -- -- 70
2019-01-31 06:00:00 13.2 29 Oeste 50 Oeste 0 -- -- 70
2019-01-31 05:00:00 12.9 22 Oeste 46 Oeste 0 -- -- 65
2019-01-31 04:00:00 13 31 Oeste 51 Oeste 0 -- -- 61
2019-01-31 03:00:00 13.1 27 Oeste 52 Oeste 0 -- -- 55
2019-01-31 02:00:00 13 24 Oeste 44 Sudoeste 0 -- -- 58
2019-01-31 01:00:00 12.6 19 Sudoeste 36 Sudoeste 0 -- -- 69
2019-01-31 00:00:00 12.1 20 Sudoeste 38 Sudoeste 0 -- -- 70
2019-01-30 23:00:00 12 18 Sudoeste 31 Sudoeste 0 -- -- 62
2019-01-30 22:00:00 11.5 14 Sudoeste 27 Sudoeste 0 -- -- 64
2019-01-30 21:00:00 11.1 13 Sudoeste 19 Sudoeste 0 -- -- 59
2019-01-30 20:00:00 10.5 8 Sudoeste 24 Oeste 0 -- -- 54
2019-01-30 19:00:00 10.9 12 Oeste 21 Oeste 0 -- -- 53
2019-01-30 18:00:00 11 9 Oeste 28 Oeste 0 -- -- 44
2019-01-30 17:00:00 13.4 16 Noroeste 38 Oeste 0 -- -- 42
2019-01-30 16:00:00 13.4 22 Oeste 35 Oeste 0 -- -- 49
2019-01-30 15:00:00 13.7 23 Oeste 39 Oeste 0 -- -- 52
2019-01-30 14:00:00 14.1 19 Noroeste 37 Noroeste 0 -- -- 45
2019-01-30 13:00:00 14 23 Oeste 39 Noroeste 0 -- -- 44
2019-01-30 12:00:00 13.9 22 Noroeste 35 Noroeste 0 -- -- 43
2019-01-30 11:00:00 12.3 23 Noroeste 40 Noroeste 0 -- -- 50
2019-01-30 10:00:00 11.4 21 Noroeste 48 Noroeste 0 -- -- 54
2019-01-30 09:00:00 10.6 25 Noroeste 59 Noroeste 0 -- -- 55
2019-01-30 08:00:00 10.3 35 Noroeste 63 Noroeste 0 -- -- 55
2019-01-30 07:00:00 10.6 39 Noroeste 68 Noroeste 0 -- -- 54
2019-01-30 06:00:00 10.8 30 Noroeste 60 Noroeste 0 -- -- 56
2019-01-30 05:00:00 11.1 33 Noroeste 60 Noroeste 0 -- -- 54
2019-01-30 04:00:00 11.4 37 Noroeste 67 Noroeste 0 -- -- 53
2019-01-30 03:00:00 11.5 36 Noroeste 63 Oeste 0 -- -- 56
2019-01-30 02:00:00 11.7 30 Noroeste 62 Noroeste 0 -- -- 58
2019-01-30 01:00:00 12.6 34 Noroeste 57 Noroeste 0 -- -- 55
2019-01-30 00:00:00 12.4 19 Noroeste 55 Oeste 0 -- -- 75
2019-01-29 23:00:00 13.5 30 Oeste 50 Oeste 0 -- -- 75
2019-01-29 22:00:00 12.9 19 Oeste 37 Sudoeste 0 -- -- 76
2019-01-29 21:00:00 12.6 19 Oeste 34 Sudoeste 0 -- -- 72
2019-01-29 20:00:00 12.2 22 Oeste 32 Oeste 0 -- -- 71
2019-01-29 19:00:00 11.5 17 Oeste 32 Oeste 0 -- -- 68
2019-01-29 18:00:00 11.6 18 Oeste 35 Oeste 0 -- -- 68
2019-01-29 17:00:00 12 18 Oeste 31 Oeste 0 -- -- 69
2019-01-29 16:00:00 12.6 15 Oeste 27 Oeste 0 -- -- 62
2019-01-29 15:00:00 12.3 16 Oeste 26 Oeste 0 -- -- 59
2019-01-29 14:00:00 13.2 14 Oeste 26 Oeste 0 -- -- 56
2019-01-29 13:00:00 13.4 14 Noroeste 24 Oeste 0 -- -- 61
2019-01-29 12:00:00 13.5 10 Oeste 17 Oeste 0 -- -- 59
2019-01-29 11:00:00 11.4 5 Noroeste 17 Norte 0 -- -- 63
2019-01-29 10:00:00 11 12 Noroeste 22 Noroeste 0 -- -- 65
2019-01-29 09:00:00 10.3 5 Oeste 10 Norte 0 -- -- 72
2019-01-29 08:00:00 7.8 2 Sur 14 Este 0 -- -- 83
2019-01-29 07:00:00 6.1 7 Este 17 Norte 0 -- -- 79
2019-01-29 06:00:00 7.9 5 Noroeste 15 Noroeste 0 -- -- 74
2019-01-29 05:00:00 9.1 9 Noroeste 27 Noroeste 0 -- -- 72
2019-01-29 04:00:00 9.9 12 Oeste 29 Noroeste 0 -- -- 72
2019-01-29 03:00:00 9.6 17 Noroeste 31 Noroeste 0 -- -- 71
2019-01-29 02:00:00 10 15 Noroeste 33 Noroeste 0 -- -- 69
2019-01-29 01:00:00 10.4 19 Noroeste 40 Noroeste 0 -- -- 68
2019-01-29 00:00:00 10.9 24 Noroeste 44 Noroeste 0 -- -- 64
2019-01-28 23:00:00 11.3 23 Noroeste 42 Noroeste 0 -- -- 62
2019-01-28 22:00:00 12 22 Noroeste 42 Noroeste 0 -- -- 59
2019-01-28 21:00:00 12.2 23 Noroeste 46 Noroeste 0 -- -- 61
2019-01-28 20:00:00 12.5 25 Noroeste 49 Noroeste 0 -- -- 58
2019-01-28 19:00:00 13 31 Noroeste 51 Noroeste 0 -- -- 56
2019-01-28 18:00:00 13.2 28 Noroeste 51 Noroeste 0 -- -- 56
2019-01-28 17:00:00 13.1 26 Noroeste 50 Oeste 0 -- -- 61
2019-01-28 16:00:00 13.4 32 Noroeste 60 Oeste 0 -- -- 56
2019-01-28 15:00:00 13.7 33 Oeste 68 Oeste 0 -- -- 63
2019-01-28 14:00:00 13.9 34 Oeste 67 Oeste 0 -- -- 60
2019-01-28 13:00:00 13.4 35 Oeste 65 Oeste 0 -- -- 60
2019-01-28 12:00:00 13.9 32 Oeste 57 Noroeste 0 -- -- 60
2019-01-28 11:00:00 13.2 33 Oeste 51 Noroeste 0 -- -- 53
2019-01-28 10:00:00 11.7 21 Noroeste 46 Oeste 0 -- -- 59
2019-01-28 09:00:00 10.4 24 Noroeste 46 Noroeste 0 -- -- 63
2019-01-28 08:00:00 10 32 Noroeste 55 Noroeste 0 -- -- 61
2019-01-28 07:00:00 9.4 23 Noroeste 42 Noroeste 0 -- -- 63
2019-01-28 06:00:00 9 15 Noroeste 37 Noroeste 0 -- -- 68
2019-01-28 05:00:00 9.2 22 Noroeste 37 Noroeste 0 -- -- 66
2019-01-28 04:00:00 9.8 22 Noroeste 38 Noroeste 0 -- -- 62
2019-01-28 03:00:00 9.8 16 Noroeste 42 Noroeste 0 -- -- 60
2019-01-28 02:00:00 10.4 23 Noroeste 47 Noroeste 0 -- -- 55
2019-01-28 01:00:00 10.6 31 Noroeste 51 Noroeste 0 -- -- 56
2019-01-28 00:00:00 10.9 31 Noroeste 53 Noroeste 0 -- -- 54
2019-01-27 23:00:00 11.1 33 Noroeste 59 Noroeste 0 -- -- 52
2019-01-27 22:00:00 11.6 39 Noroeste 66 Noroeste 0 -- -- 50
2019-01-27 21:00:00 12 48 Noroeste 77 Noroeste 0 -- -- 46
2019-01-27 20:00:00 12.8 40 Noroeste 76 Noroeste 0 -- -- 43
2019-01-27 19:00:00 12.8 26 Noroeste 60 Noroeste 0 -- -- 48
2019-01-27 18:00:00 13.2 30 Noroeste 62 Noroeste 0 -- -- 50
2019-01-27 17:00:00 14.4 38 Noroeste 59 Noroeste 0 -- -- 45
2019-01-27 16:00:00 15.4 33 Noroeste 65 Noroeste 0 -- -- 45
2019-01-27 15:00:00 16.2 24 Noroeste 47 Noroeste 0 -- -- 47
2019-01-27 14:00:00 16 27 Noroeste 49 Noroeste 0 -- -- 55
2019-01-27 13:00:00 16 15 Oeste 34 Noroeste 0 -- -- 77
2019-01-27 12:00:00 15.7 16 Oeste 33 Oeste 0 -- -- 81
2019-01-27 11:00:00 14.8 15 Oeste 35 Oeste 0 -- -- 79
2019-01-27 10:00:00 14 21 Oeste 36 Oeste 0 -- -- 84
2019-01-27 09:00:00 13.8 19 Oeste 36 Oeste 0 -- -- 90
2019-01-27 08:00:00 12.4 19 Oeste 31 Sudoeste 0 -- -- 93
2019-01-27 07:00:00 12.3 13 Sudoeste 25 Sudoeste 0 -- -- 93
2019-01-27 06:00:00 12.3 15 Oeste 24 Oeste 0 -- -- 93
2019-01-27 05:00:00 12.4 15 Oeste 24 Oeste 0 -- -- 93
2019-01-27 04:00:00 12.4 13 Oeste 23 Oeste 0 -- -- 93
2019-01-27 03:00:00 12.7 13 Oeste 25 Oeste 0 -- -- 92
2019-01-27 02:00:00 13.2 14 Oeste 30 Sudoeste 0 -- -- 91
2019-01-27 01:00:00 13.1 17 Sudoeste 31 Sudoeste 0 -- -- 90
2019-01-27 00:00:00 13.1 18 Sudoeste 32 Sudoeste 0 -- -- 88
2019-01-26 23:00:00 12.4 15 Sudoeste 27 Sudoeste 0 -- -- 89
2019-01-26 22:00:00 12.3 14 Sudoeste 24 Sudoeste 0 -- -- 89
2019-01-26 21:00:00 12.2 13 Sudoeste 24 Sudoeste 0 -- -- 88
2019-01-26 20:00:00 12.1 11 Sudoeste 26 Sudoeste 0 -- -- 86
2019-01-26 19:00:00 12.3 16 Sudoeste 29 Sudoeste 0 -- -- 84
2019-01-26 18:00:00 12.7 12 Sudoeste 21 Sudoeste 0 -- -- 79
2019-01-26 17:00:00 15.3 13 Oeste 23 Oeste 0 -- -- 71
2019-01-26 16:00:00 15.5 15 Oeste 29 Oeste 0 -- -- 71
2019-01-26 15:00:00 14.8 19 Oeste 35 Oeste 0 -- -- 70
2019-01-26 14:00:00 15.1 18 Oeste 37 Oeste 0 -- -- 68
2019-01-26 13:00:00 15.3 19 Oeste 34 Noroeste 0 -- -- 70
2019-01-26 12:00:00 15.5 14 Oeste 30 Oeste 0 -- -- 71
2019-01-26 11:00:00 15.8 12 Oeste 20 Oeste 0 -- -- 71
2019-01-26 10:00:00 13.7 5 Oeste 13 Oeste 0 -- -- 75
2019-01-26 09:00:00 12.1 5 Norte 15 Norte 0 -- -- 84
2019-01-26 08:00:00 10 11 Norte 17 Noroeste 0 -- -- 88
2019-01-26 07:00:00 9.4 12 Noroeste 19 Norte 0 -- -- 88
2019-01-26 06:00:00 10 12 Noroeste 20 Noroeste 0 -- -- 88
2019-01-26 05:00:00 10.1 12 Norte 21 Norte 0 -- -- 87
2019-01-26 04:00:00 10.6 10 Norte 18 Norte 0 -- -- 86
2019-01-26 03:00:00 10.8 6 Noroeste 14 Noroeste 0 -- -- 84
2019-01-26 02:00:00 11.3 10 Noroeste 21 Noroeste 0 -- -- 80
2019-01-26 01:00:00 11.7 16 Noroeste 26 Noroeste 0 -- -- 80
2019-01-26 00:00:00 12.1 18 Noroeste 32 Noroeste 0 -- -- 79
2019-01-25 23:00:00 11.8 14 Noroeste 25 Oeste 0 -- -- 83
2019-01-25 22:00:00 11.8 15 Oeste 27 Sudoeste 0 -- -- 80
2019-01-25 21:00:00 11.5 15 Oeste 27 Sudoeste 0 -- -- 79
2019-01-25 20:00:00 10.9 12 Oeste 19 Oeste 0 -- -- 76
2019-01-25 19:00:00 11.7 12 Oeste 24 Oeste 0 -- -- 69
2019-01-25 18:00:00 11.7 13 Sudoeste 23 Oeste 0 -- -- 56
2019-01-25 17:00:00 12.6 11 Sudoeste 19 Sudoeste 0 -- -- 47
2019-01-25 16:00:00 14.4 11 Sudoeste 19 Sudoeste 0 -- -- 41
2019-01-25 15:00:00 14.6 13 Oeste 19 Oeste 0 -- -- 41
2019-01-25 14:00:00 14.1 8 Noroeste 19 Oeste 0 -- -- 42
2019-01-25 13:00:00 14.5 8 Norte 21 Oeste 0 -- -- 38
2019-01-25 12:00:00 13.7 10 Oeste 19 Oeste 0 -- -- 43
2019-01-25 11:00:00 12.8 12 Oeste 19 Oeste 0 -- -- 49
2019-01-25 10:00:00 11.1 9 Oeste 17 Noroeste 0 -- -- 51
2019-01-25 09:00:00 9.6 9 Oeste 14 Oeste 0 -- -- 62
2019-01-25 08:00:00 6.6 8 Noroeste 12 Noroeste 0 -- -- 57
2019-01-25 07:00:00 6.5 9 Noroeste 13 Noroeste 0 -- -- 56
2019-01-25 06:00:00 6.1 8 Noroeste 9 Noroeste 0 -- -- 60
2019-01-25 05:00:00 6.8 7 Norte 14 Noroeste 0 -- -- 66
2019-01-25 04:00:00 7.1 10 Noroeste 16 Sur 0 -- -- 69
2019-01-25 03:00:00 7.2 5 Sudoeste 9 Sudoeste 0 -- -- 64
2019-01-25 02:00:00 7 5 Sudoeste 9 Sur 0 -- -- 54
2019-01-25 01:00:00 6.9 7 Nordeste 11 Nordeste 0 -- -- 55
2019-01-25 00:00:00 6.4 8 Nordeste 10 Nordeste 0 -- -- 59
2019-01-24 23:00:00 5.8 7 Norte 11 Nordeste 0 -- -- 60
2019-01-24 22:00:00 5.8 7 Nordeste 14 Nordeste 0 -- -- 61
2019-01-24 21:00:00 5.9 9 Nordeste 13 Nordeste 0 -- -- 61
2019-01-24 20:00:00 6.5 8 Norte 20 Norte 0 -- -- 51
2019-01-24 19:00:00 8 12 Norte 22 Norte 0 -- -- 44
2019-01-24 18:00:00 9 12 Norte 41 Norte 0 -- -- 39
2019-01-24 17:00:00 10.9 22 Norte 50 Noroeste 0 -- -- 38
2019-01-24 16:00:00 11.3 27 Noroeste 50 Noroeste 0 -- -- 42
2019-01-24 15:00:00 11.8 23 Noroeste 55 Norte 0 -- -- 34
2019-01-24 14:00:00 11.5 26 Noroeste 59 Noroeste 0 -- -- 36
2019-01-24 13:00:00 11.1 34 Noroeste 73 Noroeste 0 -- -- 39
2019-01-24 12:00:00 11 32 Noroeste 63 Noroeste 0 -- -- 37
2019-01-24 11:00:00 10.4 33 Noroeste 60 Norte 0 -- -- 38
2019-01-24 10:00:00 9.2 30 Noroeste 59 Noroeste 0 -- -- 39
2019-01-24 09:00:00 8.5 36 Noroeste 61 Noroeste 0.2 -- -- 39
2019-01-24 08:00:00 6.5 30 Noroeste 69 Noroeste 0.2 -- -- 52
2019-01-24 07:00:00 7.8 32 Noroeste 64 Norte 0 -- -- 50
2019-01-24 06:00:00 7.8 30 Noroeste 57 Norte 0 -- -- 53
2019-01-24 05:00:00 7.9 23 Noroeste 48 Noroeste 0 -- -- 60
2019-01-24 04:00:00 7.4 22 Noroeste 60 Norte 0 -- -- 77
2019-01-24 03:00:00 6.3 18 Norte 32 Norte 0.2 -- -- 83
2019-01-24 02:00:00 7.5 11 Norte 31 Noroeste 0.2 -- -- 72
2019-01-24 01:00:00 9.2 16 Noroeste 40 Norte 0 -- -- 68
2019-01-24 00:00:00 9.9 20 Noroeste 45 Norte 0 -- -- 64
2019-01-23 23:00:00 11.2 31 Noroeste 56 Noroeste 0 -- -- 55
2019-01-23 22:00:00 11.6 30 Noroeste 58 Noroeste 0 -- -- 60
2019-01-23 21:00:00 12.1 33 Noroeste 66 Noroeste 0 -- -- 57
2019-01-23 20:00:00 12.6 37 Noroeste 63 Noroeste 0 -- -- 55
2019-01-23 19:00:00 12.9 34 Noroeste 73 Noroeste 0 -- -- 55
2019-01-23 18:00:00 13.2 30 Noroeste 68 Noroeste 0 -- -- 59
2019-01-23 17:00:00 13.3 40 Noroeste 72 Noroeste 0 -- -- 58
2019-01-23 16:00:00 13.9 39 Noroeste 71 Noroeste 0 -- -- 62
2019-01-23 15:00:00 14 36 Noroeste 63 Oeste 0 -- -- 64
2019-01-23 14:00:00 13.1 36 Oeste 65 Oeste 0 -- -- 71
2019-01-23 13:00:00 12.5 34 Oeste 53 Oeste 0 -- -- 72
2019-01-23 12:00:00 11.1 17 Oeste 46 Oeste 0.4 -- -- 76
2019-01-23 11:00:00 10 30 Noroeste 54 Oeste 0.6 -- -- 73
2019-01-23 10:00:00 12 23 Oeste 51 Oeste 0 -- -- 66
2019-01-23 09:00:00 11.4 22 Oeste 43 Oeste 0 -- -- 64
2019-01-23 08:00:00 9.9 14 Noroeste 32 Oeste 0 -- -- 69
2019-01-23 07:00:00 9.4 16 Noroeste 28 Noroeste 0 -- -- 69
2019-01-23 06:00:00 9.4 14 Noroeste 40 Noroeste 0 -- -- 67
2019-01-23 05:00:00 8.9 18 Noroeste 47 Noroeste 0 -- -- 70
2019-01-23 04:00:00 8.9 30 Noroeste 48 Noroeste 0 -- -- 70
2019-01-23 03:00:00 8.6 16 Noroeste 39 Noroeste 0 -- -- 74
2019-01-23 02:00:00 8.4 22 Noroeste 38 Noroeste 0 -- -- 80
2019-01-23 01:00:00 7.3 14 Noroeste 37 Noroeste 0.4 -- -- 81
2019-01-23 00:00:00 8.9 10 Noroeste 35 Oeste 0 -- -- 71
2019-01-22 23:00:00 9.7 17 Noroeste 31 Noroeste 0 -- -- 66
2019-01-22 22:00:00 9.8 15 Noroeste 32 Oeste 0 -- -- 61
2019-01-22 21:00:00 9.6 14 Noroeste 38 Noroeste 0 -- -- 60
2019-01-22 20:00:00 9.2 18 Noroeste 46 Oeste 0 -- -- 59
2019-01-22 19:00:00 8.6 15 Noroeste 28 Noroeste 0 -- -- 63
2019-01-22 18:00:00 8.6 16 Noroeste 34 Noroeste 0 -- -- 64
2019-01-22 17:00:00 9.2 18 Noroeste 45 Oeste 0 -- -- 61
2019-01-22 16:00:00 10.2 22 Oeste 39 Noroeste 0 -- -- 57
2019-01-22 15:00:00 11.1 19 Oeste 36 Oeste 0 -- -- 53
2019-01-22 14:00:00 10.9 19 Oeste 35 Oeste 0 -- -- 58
2019-01-22 13:00:00 10.9 16 Oeste 33 Noroeste 0 -- -- 60
2019-01-22 12:00:00 11.2 19 Noroeste 35 Oeste 0 -- -- 59
2019-01-22 11:00:00 10.4 18 Noroeste 40 Oeste 0 -- -- 71
2019-01-22 10:00:00 8.5 13 Noroeste 22 Noroeste 0 -- -- 86
2019-01-22 09:00:00 8.2 8 Noroeste 10 Oeste 0 -- -- 88
2019-01-22 08:00:00 4.9 5 Noroeste 8 Norte 0 -- -- 92
2019-01-22 07:00:00 5.2 5 Noroeste 11 Sudoeste 0 -- -- 90
2019-01-22 06:00:00 5.7 4 Sudoeste 8 Sudoeste 0 -- -- 91
2019-01-22 05:00:00 5.4 2 Norte 5 Sur 0 -- -- 91
2019-01-22 04:00:00 5.3 3 Sur 6 Sur 0 -- -- 92
2019-01-22 03:00:00 5 5 Nordeste 10 Nordeste 0 -- -- 91
2019-01-22 02:00:00 5.3 7 Nordeste 28 Noroeste 2.4 -- -- 89
2019-01-22 01:00:00 6.4 18 Noroeste 35 Noroeste 0.2 -- -- 86
2019-01-22 00:00:00 4.9 10 Nordeste 17 Nordeste 0 -- -- 86
2019-01-21 23:00:00 4.7 9 Nordeste 15 Norte 0 -- -- 85
2019-01-21 22:00:00 5.3 10 Nordeste 15 Nordeste 0 -- -- 84
2019-01-21 21:00:00 5.3 8 Nordeste 13 Nordeste 0 -- -- 82
2019-01-21 20:00:00 5.8 9 Nordeste 14 Nordeste 0 -- -- 79
2019-01-21 19:00:00 6.2 10 Nordeste 17 Nordeste 0 -- -- 76
2019-01-21 18:00:00 7.7 11 Nordeste 25 Norte 0 -- -- 70
2019-01-21 17:00:00 10.8 14 Norte 28 Nordeste 0 -- -- 59
2019-01-21 16:00:00 11.6 14 Norte 37 Norte 0 -- -- 60
2019-01-21 15:00:00 13 15 Nordeste 36 Norte 0 -- -- 54
2019-01-21 14:00:00 13.5 18 Norte 42 Nordeste 0 -- -- 54
2019-01-21 13:00:00 12.8 17 Norte 39 Nordeste 0 -- -- 61
2019-01-21 12:00:00 12.1 20 Norte 34 Nordeste 0 -- -- 68
2019-01-21 11:00:00 10.6 20 Norte 33 Norte 0 -- -- 70
2019-01-21 10:00:00 10.8 11 Norte 22 Norte 0 -- -- 82
2019-01-21 09:00:00 8 9 Norte 19 Noroeste 0 -- -- 90
2019-01-21 08:00:00 6.4 9 Norte 32 Norte 0 -- -- 91
2019-01-21 07:00:00 7.6 15 Norte 32 Norte 0.2 -- -- 91
2019-01-21 06:00:00 7.9 14 Norte 28 Norte 0.6 -- -- 90
2019-01-21 05:00:00 8 16 Norte 34 Norte 0.4 -- -- 88
2019-01-21 04:00:00 8.7 13 Norte 35 Norte 0 -- -- 84
2019-01-21 03:00:00 8.7 18 Norte 37 Nordeste 0 -- -- 86
2019-01-21 02:00:00 9.2 19 Norte 39 Norte 0 -- -- 83
2019-01-21 01:00:00 9.1 20 Norte 45 Norte 0 -- -- 83
2019-01-21 00:00:00 9.1 23 Norte 44 Norte 0 -- -- 83
2019-01-20 23:00:00 9 26 Norte 53 Nordeste 0 -- -- 83
2019-01-20 22:00:00 8.8 26 Norte 51 Norte 0 -- -- 82
2019-01-20 21:00:00 9 28 Norte 49 Norte 0 -- -- 84
2019-01-20 20:00:00 9.3 19 Norte 44 Norte 0 -- -- 86
2019-01-20 19:00:00 9.7 9 Noroeste 22 Noroeste 0 -- -- 82
2019-01-20 18:00:00 10.1 11 Noroeste 20 Noroeste 0 -- -- 80
2019-01-20 17:00:00 12.2 15 Noroeste 36 Noroeste 0 -- -- 73
2019-01-20 16:00:00 11.8 18 Noroeste 29 Noroeste 0 -- -- 76
2019-01-20 15:00:00 12.5 14 Noroeste 24 Noroeste 0 -- -- 81
2019-01-20 14:00:00 11.4 15 Noroeste 25 Norte 0 -- -- 88
2019-01-20 13:00:00 11.1 8 Norte 21 Norte 0 -- -- 89
2019-01-20 12:00:00 11.2 9 Norte 18 Norte 0 -- -- 89
2019-01-20 11:00:00 13.7 6 Norte 10 Norte 0 -- -- 88
2019-01-20 10:00:00 11.9 4 Norte 15 Oeste 0 -- -- 90
2019-01-20 09:00:00 10.7 7 Oeste 17 Oeste 0 -- -- 90
2019-01-20 08:00:00 10.9 7 Oeste 29 Sur 2.6 -- -- 88
2019-01-20 07:00:00 11.5 14 Sur 23 Sur 0.4 -- -- 82
2019-01-20 06:00:00 11.6 15 Sur 26 Sur 0 -- -- 78
2019-01-20 05:00:00 12 16 Sudoeste 30 Sur 0 -- -- 74
2019-01-20 04:00:00 12 17 Sur 28 Sudoeste 0 -- -- 73
2019-01-20 03:00:00 11.4 13 Sur 26 Sur 0 -- -- 70
2019-01-20 02:00:00 11.3 15 Sudoeste 27 Sudoeste 0 -- -- 68
2019-01-20 01:00:00 11 13 Sudoeste 26 Sudoeste 0 -- -- 70
2019-01-20 00:00:00 10.9 12 Sudoeste 21 Sur 0 -- -- 73
2019-01-19 23:00:00 10.1 10 Sudoeste 21 Sudoeste 0 -- -- 75
2019-01-19 22:00:00 9.5 9 Sudoeste 17 Sudoeste 0 -- -- 75
2019-01-19 21:00:00 8.6 8 Oeste 13 Oeste 0 -- -- 76
2019-01-19 20:00:00 7.9 6 Noroeste 13 Oeste 0 -- -- 74
2019-01-19 19:00:00 9.3 9 Oeste 20 Oeste 0 -- -- 70
2019-01-19 18:00:00 10 13 Oeste 24 Noroeste 0 -- -- 66
2019-01-19 17:00:00 11.9 13 Noroeste 25 Oeste 0 -- -- 59
2019-01-19 16:00:00 12.6 14 Oeste 27 Oeste 0 -- -- 61
2019-01-19 15:00:00 12.7 17 Oeste 27 Oeste 0 -- -- 61
2019-01-19 14:00:00 13.4 13 Oeste 21 Oeste 0 -- -- 62
2019-01-19 13:00:00 13.1 11 Oeste 20 Oeste 0 -- -- 62
2019-01-19 12:00:00 13.7 9 Oeste 17 Oeste 0 -- -- 65
2019-01-19 11:00:00 13.1 6 Noroeste 12 Noroeste 0 -- -- 72
2019-01-19 10:00:00 9.1 8 Noroeste 14 Norte 0 -- -- 85
2019-01-19 09:00:00 7.7 9 Norte 14 Noroeste 0 -- -- 89
2019-01-19 08:00:00 7.1 10 Noroeste 17 Noroeste 0 -- -- 92
2019-01-19 07:00:00 6.7 13 Norte 23 Norte 0 -- -- 93
2019-01-19 06:00:00 7 6 Noroeste 10 Noroeste 0 -- -- 93
2019-01-19 05:00:00 7 4 Noroeste 7 Noroeste 0 -- -- 94
2019-01-19 04:00:00 7.3 3 Noroeste 4 Noroeste 0 -- -- 95
2019-01-19 03:00:00 6.8 3 Norte 6 Nordeste 0 -- -- 95
2019-01-19 02:00:00 6.7 -- -- -- -- 0 -- -- 95
2019-01-19 01:00:00 7 4 Noroeste 6 Norte 0 -- -- 95
2019-01-19 00:00:00 6.8 6 Norte 12 Norte 0 -- -- 95